Time,TemperatureF,DewpointF,PressureIn,WindDirection,WindDirectionDegrees,WindSpeedMPH,WindSpeedGustMPH,Humidity,HourlyPrecipIn,Conditions,Clouds,dailyrainin,SoftwareType,DateUTC
2013-08-08 00:02:00,89.0,67.0,29.77,SE,146,3.0,6.0,48,0.00,,,0.00,,2013-08-08 05:02:00,
2013-08-08 00:11:00,88.0,66.0,29.77,SE,146,1.0,3.0,49,0.00,,,0.00,,2013-08-08 05:11:00,
2013-08-08 00:22:00,88.0,66.0,29.77,SE,146,2.0,3.0,49,0.00,,,0.00,,2013-08-08 05:22:00,
2013-08-08 00:33:00,87.0,66.0,29.77,SE,146,4.0,8.0,50,0.00,,,0.00,,2013-08-08 05:33:00,
2013-08-08 00:43:00,87.0,66.0,29.77,SSE,148,4.0,8.0,50,0.00,,,0.00,,2013-08-08 05:43:00,
2013-08-08 00:52:00,87.0,65.0,29.77,SE,141,7.0,12.0,49,0.00,,,0.00,,2013-08-08 05:52:00,
2013-08-08 01:01:00,87.0,65.0,29.77,SSE,147,9.0,15.0,49,0.00,,,0.00,,2013-08-08 06:01:00,
2013-08-08 01:11:00,87.0,66.0,29.77,SSE,149,7.0,14.0,50,0.00,,,0.00,,2013-08-08 06:11:00,
2013-08-08 01:21:00,87.0,67.0,29.77,SSW,203,7.0,13.0,51,0.00,,,0.00,,2013-08-08 06:21:00,
2013-08-08 01:32:00,87.0,67.0,29.77,SSE,154,7.0,14.0,52,0.00,,,0.00,,2013-08-08 06:32:00,
2013-08-08 01:43:00,87.0,68.0,29.77,SSE,148,7.0,16.0,53,0.00,,,0.00,,2013-08-08 06:43:00,
2013-08-08 01:52:00,87.0,68.0,29.77,SSE,150,7.0,12.0,54,0.00,,,0.00,,2013-08-08 06:52:00,
2013-08-08 02:01:00,87.0,69.0,29.77,SSE,157,9.0,15.0,55,0.00,,,0.00,,2013-08-08 07:01:00,
2013-08-08 02:12:00,87.0,69.0,29.78,SSE,164,8.0,14.0,55,0.00,,,0.00,,2013-08-08 07:12:00,
2013-08-08 02:22:00,87.0,69.0,29.78,SSE,167,9.0,15.0,56,0.00,,,0.00,,2013-08-08 07:22:00,
2013-08-08 02:32:00,87.0,70.0,29.77,SSE,162,7.0,15.0,57,0.00,,,0.00,,2013-08-08 07:32:00,
2013-08-08 02:43:00,87.0,70.0,29.77,SSW,192,8.0,15.0,58,0.00,,,0.00,,2013-08-08 07:43:00,
2013-08-08 02:53:00,86.0,70.0,29.76,SSE,155,6.0,12.0,59,0.00,,,0.00,,2013-08-08 07:53:00,
2013-08-08 03:02:00,86.0,70.0,29.76,South,175,9.0,15.0,60,0.00,,,0.00,,2013-08-08 08:02:00,
2013-08-08 03:11:00,86.0,71.0,29.76,South,182,9.0,20.0,61,0.00,,,0.00,,2013-08-08 08:11:00,
2013-08-08 03:22:00,86.0,71.0,29.76,South,172,8.0,16.0,62,0.00,,,0.00,,2013-08-08 08:22:00,
2013-08-08 03:32:00,85.0,71.0,29.75,SSE,155,10.0,18.0,63,0.00,,,0.00,,2013-08-08 08:32:00,
2013-08-08 03:43:00,85.0,71.0,29.75,SSE,158,10.0,20.0,64,0.00,,,0.00,,2013-08-08 08:43:00,
2013-08-08 03:52:00,85.0,72.0,29.75,SSE,148,7.0,16.0,65,0.00,,,0.00,,2013-08-08 08:52:00,
2013-08-08 04:01:00,84.0,71.0,29.75,SSE,157,6.0,13.0,66,0.00,,,0.00,,2013-08-08 09:01:00,
2013-08-08 04:12:00,84.0,72.0,29.74,SSE,147,9.0,15.0,67,0.00,,,0.00,,2013-08-08 09:12:00,
2013-08-08 04:22:00,84.0,72.0,29.74,SSE,159,9.0,15.0,68,0.00,,,0.00,,2013-08-08 09:22:00,
2013-08-08 04:32:00,84.0,73.0,29.73,SSE,167,8.0,20.0,69,0.00,,,0.00,,2013-08-08 09:32:00,
2013-08-08 04:43:00,83.0,72.0,29.75,SSE,162,6.0,9.0,69,0.00,,,0.00,,2013-08-08 09:43:00,
2013-08-08 04:53:00,83.0,72.0,29.74,SSE,151,6.0,14.0,70,0.00,,,0.00,,2013-08-08 09:53:00,
2013-08-08 05:01:00,83.0,73.0,29.74,SE,144,6.0,14.0,71,0.00,,,0.00,,2013-08-08 10:01:00,
2013-08-08 05:11:00,83.0,73.0,29.74,SSE,156,7.0,12.0,72,0.00,,,0.00,,2013-08-08 10:11:00,
2013-08-08 05:22:00,82.0,72.0,29.74,SSE,159,7.0,13.0,73,0.00,,,0.00,,2013-08-08 10:22:00,
2013-08-08 05:32:00,82.0,73.0,29.74,SSE,152,8.0,20.0,74,0.00,,,0.00,,2013-08-08 10:32:00,
2013-08-08 05:43:00,82.0,73.0,29.74,SSE,154,7.0,13.0,75,0.00,,,0.00,,2013-08-08 10:43:00,
2013-08-08 05:52:00,81.0,72.0,29.74,SSE,160,8.0,10.0,75,0.00,,,0.00,,2013-08-08 10:52:00,
2013-08-08 06:01:00,81.0,73.0,29.74,SE,146,9.0,15.0,76,0.00,,,0.00,,2013-08-08 11:01:00,
2013-08-08 06:11:00,81.0,73.0,29.74,SSE,163,8.0,15.0,77,0.00,,,0.00,,2013-08-08 11:11:00,
2013-08-08 06:21:00,81.0,73.0,29.74,South,175,8.0,15.0,77,0.00,,,0.00,,2013-08-08 11:21:00,
2013-08-08 06:32:00,80.0,72.0,29.75,SSE,153,7.0,18.0,77,0.00,,,0.00,,2013-08-08 11:32:00,
2013-08-08 06:43:00,80.0,72.0,29.75,SE,142,11.0,18.0,78,0.00,,,0.00,,2013-08-08 11:43:00,
2013-08-08 06:52:00,80.0,72.0,29.75,SE,144,9.0,16.0,78,0.00,,,0.00,,2013-08-08 11:52:00,
2013-08-08 07:01:00,80.0,73.0,29.76,SE,136,9.0,15.0,79,0.00,,,0.00,,2013-08-08 12:01:00,
2013-08-08 07:11:00,80.0,73.0,29.77,SSE,164,7.0,12.0,79,0.00,,,0.00,,2013-08-08 12:11:00,
2013-08-08 07:21:00,80.0,73.0,29.77,SSE,153,9.0,13.0,79,0.00,,,0.00,,2013-08-08 12:21:00,
2013-08-08 07:32:00,80.0,73.0,29.77,SSE,165,7.0,12.0,79,0.00,,,0.00,,2013-08-08 12:32:00,
2013-08-08 07:43:00,80.0,73.0,29.77,SSE,147,7.0,14.0,80,0.00,,,0.00,,2013-08-08 12:43:00,
2013-08-08 07:52:00,80.0,73.0,29.77,SSE,159,7.0,13.0,80,0.00,,,0.00,,2013-08-08 12:52:00,
2013-08-08 08:01:00,80.0,73.0,29.77,SSE,152,7.0,13.0,80,0.00,,,0.00,,2013-08-08 13:01:00,
2013-08-08 08:11:00,80.0,73.0,29.77,SE,142,9.0,14.0,79,0.00,,,0.00,,2013-08-08 13:11:00,
2013-08-08 08:22:00,80.0,73.0,29.78,South,169,9.0,20.0,79,0.00,,,0.00,,2013-08-08 13:22:00,
2013-08-08 08:32:00,80.0,72.0,29.78,SE,140,8.0,14.0,78,0.00,,,0.00,,2013-08-08 13:32:00,
2013-08-08 08:43:00,81.0,73.0,29.78,SSE,150,5.0,12.0,77,0.00,,,0.00,,2013-08-08 13:43:00,
2013-08-08 08:52:00,81.0,73.0,29.78,SSE,155,7.0,15.0,76,0.00,,,0.00,,2013-08-08 13:52:00,
2013-08-08 09:02:00,82.0,73.0,29.80,SSE,157,5.0,12.0,75,0.00,,,0.00,,2013-08-08 14:02:00,
2013-08-08 09:11:00,83.0,74.0,29.80,South,178,7.0,12.0,74,0.00,,,0.00,,2013-08-08 14:11:00,
2013-08-08 09:22:00,83.0,73.0,29.81,South,172,6.0,12.0,72,0.00,,,0.00,,2013-08-08 14:22:00,
2013-08-08 09:32:00,84.0,73.0,29.81,South,176,5.0,10.0,70,0.00,,,0.00,,2013-08-08 14:32:00,
2013-08-08 09:43:00,85.0,74.0,29.81,South,172,4.0,8.0,69,0.00,,,0.00,,2013-08-08 14:43:00,
2013-08-08 09:53:00,86.0,74.0,29.81,South,184,6.0,12.0,67,0.00,,,0.00,,2013-08-08 14:53:00,
2013-08-08 10:02:00,86.0,74.0,29.81,SSW,204,6.0,13.0,67,0.00,,,0.00,,2013-08-08 15:02:00,
2013-08-08 10:11:00,87.0,73.0,29.81,SSE,147,4.0,12.0,64,0.00,,,0.00,,2013-08-08 15:11:00,
2013-08-08 10:22:00,88.0,73.0,29.81,SSE,163,5.0,13.0,62,0.00,,,0.00,,2013-08-08 15:22:00,
2013-08-08 10:32:00,88.0,73.0,29.81,South,176,4.0,12.0,61,0.00,,,0.00,,2013-08-08 15:32:00,
2013-08-08 10:43:00,89.0,72.0,29.81,SSE,154,7.0,15.0,58,0.00,,,0.00,,2013-08-08 15:43:00,
2013-08-08 10:52:00,89.0,72.0,29.82,South,175,7.0,14.0,57,0.00,,,0.00,,2013-08-08 15:52:00,
2013-08-08 11:01:00,89.0,71.0,29.82,South,185,9.0,14.0,56,0.00,,,0.00,,2013-08-08 16:01:00,
2013-08-08 11:11:00,89.0,72.0,29.82,South,181,5.0,13.0,57,0.00,,,0.00,,2013-08-08 16:11:00,
2013-08-08 11:22:00,90.0,72.0,29.82,South,181,5.0,12.0,55,0.00,,,0.00,,2013-08-08 16:22:00,
2013-08-08 11:32:00,90.0,72.0,29.82,SSW,198,5.0,10.0,55,0.00,,,0.00,,2013-08-08 16:32:00,
2013-08-08 11:42:00,91.0,72.0,29.82,SSW,204,7.0,13.0,54,0.00,,,0.00,,2013-08-08 16:42:00,
2013-08-08 11:52:00,91.0,73.0,29.82,SW,217,5.0,12.0,55,0.00,,,0.00,,2013-08-08 16:52:00,
2013-08-08 12:01:00,91.0,70.0,29.83,SSW,212,7.0,18.0,50,0.00,,,0.00,,2013-08-08 17:01:00,
2013-08-08 12:11:00,91.0,70.0,29.83,SSW,195,7.0,12.0,50,0.00,,,0.00,,2013-08-08 17:11:00,
2013-08-08 12:21:00,92.0,71.0,29.82,WSW,240,5.0,9.0,50,0.00,,,0.00,,2013-08-08 17:21:00,
2013-08-08 12:32:00,92.0,69.0,29.82,SSW,211,6.0,12.0,48,0.00,,,0.00,,2013-08-08 17:32:00,
2013-08-08 12:43:00,93.0,68.0,29.81,SSW,200,6.0,14.0,45,0.00,,,0.00,,2013-08-08 17:43:00,
2013-08-08 12:52:00,94.0,68.0,29.81,SSW,192,4.0,10.0,43,0.00,,,0.00,,2013-08-08 17:52:00,
2013-08-08 13:01:00,95.0,70.0,29.81,West,274,6.0,10.0,45,0.00,,,0.00,,2013-08-08 18:01:00,
2013-08-08 13:11:00,96.0,68.0,29.80,SSW,208,5.0,10.0,41,0.00,,,0.00,,2013-08-08 18:11:00,
2013-08-08 13:21:00,95.0,68.0,29.80,South,177,3.0,12.0,42,0.00,,,0.00,,2013-08-08 18:21:00,
2013-08-08 13:32:00,96.0,68.0,29.80,SSE,151,2.0,12.0,40,0.00,,,0.00,,2013-08-08 18:32:00,
2013-08-08 13:43:00,96.0,68.0,29.80,SSE,158,4.0,14.0,41,0.00,,,0.00,,2013-08-08 18:43:00,
2013-08-08 13:52:00,96.0,69.0,29.80,South,183,5.0,12.0,42,0.00,,,0.00,,2013-08-08 18:52:00,
2013-08-08 14:11:00,97.0,67.0,29.79,SSE,156,2.0,8.0,38,0.00,,,0.00,,2013-08-08 19:11:00,
2013-08-08 14:22:00,97.0,69.0,29.79,SSE,159,7.0,12.0,40,0.00,,,0.00,,2013-08-08 19:22:00,
2013-08-08 14:32:00,97.0,69.0,29.79,SSW,208,7.0,12.0,40,0.00,,,0.00,,2013-08-08 19:32:00,
2013-08-08 15:02:00,98.0,69.0,29.77,SSW,210,1.0,13.0,39,0.00,,,0.00,,2013-08-08 20:02:00,
2013-08-08 15:52:00,98.0,70.0,29.76,SSW,209,4.0,9.0,40,0.00,,,0.00,,2013-08-08 20:52:00,
2013-08-08 16:01:00,99.0,70.0,29.76,South,170,1.0,6.0,39,0.00,,,0.00,,2013-08-08 21:01:00,
2013-08-08 16:12:00,99.0,69.0,29.75,SSE,152,5.0,9.0,38,0.00,,,0.00,,2013-08-08 21:12:00,
2013-08-08 16:22:00,99.0,70.0,29.75,West,267,7.0,9.0,39,0.00,,,0.00,,2013-08-08 21:22:00,
2013-08-08 17:04:00,97.0,71.0,29.74,WNW,286,3.0,9.0,44,0.00,,,0.00,,2013-08-08 22:04:00,
2013-08-08 17:22:00,99.0,71.0,29.73,WNW,288,2.0,5.0,41,0.00,,,0.00,,2013-08-08 22:22:00,
2013-08-08 17:33:00,101.0,71.0,29.73,WNW,298,1.0,7.0,39,0.00,,,0.00,,2013-08-08 22:33:00,
2013-08-08 17:47:00,101.0,71.0,29.72,WNW,298,0.0,2.0,38,0.00,,,0.00,,2013-08-08 22:47:00,
2013-08-08 18:04:00,102.0,69.0,29.72,SSE,153,4.0,8.0,35,0.00,,,0.00,,2013-08-08 23:04:00,
2013-08-08 18:13:00,102.0,69.0,29.71,South,174,9.0,13.0,35,0.00,,,0.00,,2013-08-08 23:13:00,
2013-08-08 18:23:00,100.0,68.0,29.70,South,175,5.0,13.0,36,0.00,,,0.00,,2013-08-08 23:23:00,
2013-08-08 18:34:00,101.0,69.0,29.70,SE,137,7.0,12.0,36,0.00,,,0.00,,2013-08-08 23:34:00,
2013-08-08 18:44:00,101.0,68.0,29.70,ESE,122,8.0,12.0,35,0.00,,,0.00,,2013-08-08 23:44:00,
2013-08-08 18:53:00,101.0,68.0,29.70,SE,132,7.0,16.0,35,0.00,,,0.00,,2013-08-08 23:53:00,
2013-08-08 19:14:00,100.0,67.0,29.70,SSE,154,5.0,12.0,34,0.00,,,0.00,,2013-08-09 00:14:00,
2013-08-08 19:24:00,101.0,67.0,29.70,SE,135,7.0,14.0,34,0.00,,,0.00,,2013-08-09 00:24:00,
2013-08-08 19:45:00,99.0,67.0,29.70,SE,139,7.0,12.0,36,0.00,,,0.00,,2013-08-09 00:45:00,
2013-08-08 19:53:00,99.0,67.0,29.71,SSE,157,4.0,9.0,36,0.00,,,0.00,,2013-08-09 00:53:00,
2013-08-08 20:02:00,98.0,67.0,29.72,SSE,152,3.0,8.0,37,0.00,,,0.00,,2013-08-09 01:02:00,
2013-08-08 20:23:00,97.0,67.0,29.72,SSE,153,3.0,7.0,38,0.00,,,0.00,,2013-08-09 01:23:00,
2013-08-08 20:33:00,96.0,66.0,29.72,SSE,153,3.0,6.0,38,0.00,,,0.00,,2013-08-09 01:33:00,
2013-08-08 20:45:00,96.0,67.0,29.73,SSE,153,2.0,6.0,39,0.00,,,0.00,,2013-08-09 01:45:00,
2013-08-08 20:55:00,95.0,66.0,29.74,SSE,152,1.0,8.0,39,0.00,,,0.00,,2013-08-09 01:55:00,
2013-08-08 21:03:00,95.0,66.0,29.74,SSE,153,1.0,3.0,39,0.00,,,0.00,,2013-08-09 02:03:00,
2013-08-08 21:12:00,94.0,66.0,29.74,SSE,152,0.0,2.0,40,0.00,,,0.00,,2013-08-09 02:12:00,
2013-08-08 21:23:00,94.0,67.0,29.75,SSE,153,1.0,3.0,41,0.00,,,0.00,,2013-08-09 02:23:00,
2013-08-08 21:34:00,93.0,66.0,29.75,SSE,153,1.0,3.0,41,0.00,,,0.00,,2013-08-09 02:34:00,
2013-08-08 21:44:00,93.0,66.0,29.76,SSE,152,1.0,3.0,41,0.00,,,0.00,,2013-08-09 02:44:00,
2013-08-08 21:55:00,92.0,66.0,29.76,SSE,153,2.0,3.0,42,0.00,,,0.00,,2013-08-09 02:55:00,
2013-08-08 22:04:00,91.0,65.0,29.76,SSE,152,4.0,5.0,42,0.00,,,0.00,,2013-08-09 03:04:00,
2013-08-08 22:13:00,91.0,65.0,29.76,SSE,152,1.0,2.0,43,0.00,,,0.00,,2013-08-09 03:13:00,
2013-08-08 22:23:00,90.0,64.0,29.77,SSE,152,1.0,3.0,43,0.00,,,0.00,,2013-08-09 03:23:00,
2013-08-08 22:34:00,90.0,65.0,29.77,SSE,153,1.0,3.0,44,0.00,,,0.00,,2013-08-09 03:34:00,
2013-08-08 22:44:00,89.0,65.0,29.78,SSE,153,1.0,2.0,45,0.00,,,0.00,,2013-08-09 03:44:00,
2013-08-08 22:52:00,89.0,65.0,29.78,SSE,153,1.0,2.0,45,0.00,,,0.00,,2013-08-09 03:52:00,
2013-08-08 23:01:00,88.0,65.0,29.78,SSE,153,1.0,2.0,47,0.00,,,0.00,,2013-08-09 04:01:00,
2013-08-08 23:12:00,87.0,64.0,29.77,SSE,152,3.0,5.0,47,0.00,,,0.00,,2013-08-09 04:12:00,
2013-08-08 23:22:00,87.0,64.0,29.77,SSE,152,0.0,2.0,47,0.00,,,0.00,,2013-08-09 04:22:00,
2013-08-08 23:33:00,87.0,65.0,29.77,SSE,152,2.0,3.0,48,0.00,,,0.00,,2013-08-09 04:33:00,
2013-08-08 23:43:00,86.0,64.0,29.77,SSE,152,5.0,5.0,48,0.00,,,0.00,,2013-08-09 04:43:00,
2013-08-08 23:53:00,86.0,64.0,29.77,SSE,152,2.0,5.0,48,0.00,,,0.00,,2013-08-09 04:53:00,